createdAt,value
2022-09-15T00:01:40.054Z,1.02
2022-09-15T00:04:10.332Z,0.90
2022-09-15T00:06:38.928Z,0.90
2022-09-15T00:09:06.940Z,0.80
2022-09-15T00:11:38.344Z,1.00
2022-09-15T00:14:09.076Z,0.83
2022-09-15T00:16:38.368Z,0.90
2022-09-15T00:19:07.491Z,0.80
2022-09-15T00:21:41.893Z,1.00
2022-09-15T00:24:11.226Z,1.10
2022-09-15T00:26:40.125Z,1.20
2022-09-15T00:29:09.568Z,1.00
2022-09-15T00:31:37.885Z,0.97
2022-09-15T00:34:07.599Z,1.20
2022-09-15T00:36:37.291Z,1.00
2022-09-15T00:39:06.843Z,1.60
2022-09-15T00:41:35.718Z,1.40
2022-09-15T00:44:08.448Z,1.33
2022-09-15T00:46:41.765Z,1.17
2022-09-15T00:49:15.965Z,1.50
2022-09-15T00:51:52.694Z,1.77
2022-09-15T00:54:42.094Z,1.75
2022-09-15T00:57:19.116Z,1.50
2022-09-15T00:59:50.079Z,1.63
2022-09-15T01:02:24.107Z,1.50
2022-09-15T01:04:58.129Z,1.40
2022-09-15T01:07:35.867Z,1.20
2022-09-15T01:10:11.899Z,1.87
2022-09-15T01:12:41.833Z,1.47
2022-09-15T01:15:10.460Z,1.43
2022-09-15T01:17:57.276Z,1.53
2022-09-15T01:21:11.089Z,1.63
2022-09-15T01:24:28.985Z,1.50
2022-09-15T01:27:40.348Z,1.60
2022-09-15T01:30:12.783Z,1.40
2022-09-15T01:33:11.649Z,1.63
2022-09-15T01:35:58.322Z,1.60
2022-09-15T01:38:48.009Z,1.43
2022-09-15T01:41:25.285Z,1.98
2022-09-15T01:44:03.300Z,1.73
2022-09-15T01:46:40.817Z,1.42
2022-09-15T01:49:14.724Z,2.00
2022-09-15T01:51:46.905Z,1.30
2022-09-15T01:54:17.488Z,1.90
2022-09-15T01:56:46.196Z,1.47
2022-09-15T01:59:14.484Z,1.80
2022-09-15T02:01:52.040Z,1.50
2022-09-15T02:04:29.608Z,1.50
2022-09-15T02:07:11.714Z,1.70
2022-09-15T02:09:48.644Z,1.52
2022-09-15T02:12:29.308Z,1.33
2022-09-15T02:15:03.572Z,1.60
2022-09-15T02:17:36.087Z,1.83
2022-09-15T02:20:16.749Z,1.70
2022-09-15T02:22:50.957Z,1.70
2022-09-15T02:25:29.240Z,1.40
2022-09-15T02:28:04.073Z,1.67
2022-09-15T02:30:37.010Z,1.50
2022-09-15T02:33:14.055Z,1.40
2022-09-15T02:35:43.929Z,1.43
2022-09-15T02:38:14.047Z,1.27
2022-09-15T02:40:45.711Z,1.23
2022-09-15T02:43:19.581Z,1.07
2022-09-15T02:45:49.943Z,1.20
2022-09-15T02:48:19.377Z,1.48
2022-09-15T02:50:48.394Z,1.57
2022-09-15T02:53:16.453Z,0.87
2022-09-15T02:55:44.462Z,0.93
2022-09-15T02:58:13.389Z,1.33
2022-09-15T03:00:41.894Z,1.27
2022-09-15T03:03:10.716Z,1.20
2022-09-15T03:05:40.195Z,1.25
2022-09-15T03:08:08.665Z,1.30
2022-09-15T03:10:36.800Z,1.10
2022-09-15T03:13:05.255Z,1.10
2022-09-15T03:15:33.722Z,1.33
2022-09-15T03:18:03.113Z,1.00
2022-09-15T03:20:31.841Z,1.10
2022-09-15T03:23:03.248Z,1.50
2022-09-15T03:25:33.071Z,1.40
2022-09-15T03:28:01.512Z,1.45
2022-09-15T03:30:29.547Z,1.47
2022-09-15T03:32:57.714Z,1.17
2022-09-15T03:35:26.188Z,1.10
2022-09-15T03:37:54.215Z,1.27
2022-09-15T03:40:24.423Z,1.50
2022-09-15T03:42:52.550Z,1.25
2022-09-15T03:45:20.624Z,1.27
2022-09-15T03:47:49.150Z,1.60
2022-09-15T03:50:17.411Z,2.10
2022-09-15T03:52:46.875Z,2.27
2022-09-15T03:55:15.189Z,1.45
2022-09-15T03:57:45.589Z,1.52
2022-09-15T04:00:15.675Z,1.70
2022-09-15T04:02:43.744Z,2.60
2022-09-15T04:05:13.642Z,2.13
2022-09-15T04:07:42.222Z,1.48
2022-09-15T04:10:11.515Z,1.98
2022-09-15T04:12:39.680Z,2.00
2022-09-15T04:15:09.897Z,2.10
2022-09-15T04:17:38.002Z,1.97
2022-09-15T04:20:07.486Z,1.70
2022-09-15T04:22:36.199Z,1.60
2022-09-15T04:25:04.752Z,1.50
2022-09-15T04:27:34.408Z,1.70
2022-09-15T04:30:02.587Z,1.63
2022-09-15T04:32:32.549Z,2.10
2022-09-15T04:35:00.535Z,1.90
2022-09-15T04:37:29.137Z,1.77
2022-09-15T04:39:57.603Z,1.87
2022-09-15T04:42:25.887Z,1.97
2022-09-15T04:44:53.932Z,1.70
2022-09-15T04:47:22.157Z,1.53
2022-09-15T04:49:51.863Z,1.70
2022-09-15T04:52:20.340Z,1.80
2022-09-15T04:54:48.619Z,1.95
2022-09-15T04:57:16.677Z,1.77
2022-09-15T04:59:44.713Z,1.70
2022-09-15T05:02:12.918Z,1.50
2022-09-15T05:04:41.569Z,1.60
2022-09-15T05:07:10.997Z,1.53
2022-09-15T05:09:39.656Z,2.03
2022-09-15T05:12:08.324Z,2.60
2022-09-15T05:14:36.374Z,2.00
2022-09-15T05:17:04.484Z,1.95
2022-09-15T05:19:33.005Z,1.70
2022-09-15T05:22:01.116Z,1.70
2022-09-15T05:24:30.528Z,1.80
2022-09-15T05:26:58.665Z,1.90
2022-09-15T05:29:27.236Z,2.00
2022-09-15T05:31:55.415Z,1.80
2022-09-15T05:34:24.000Z,1.70
2022-09-15T05:36:52.183Z,1.37
2022-09-15T05:39:20.246Z,2.33
2022-09-15T05:41:50.346Z,1.80
2022-09-15T05:44:18.782Z,1.80
2022-09-15T05:46:47.485Z,1.80
2022-09-15T05:49:16.177Z,1.27
2022-09-15T05:51:44.193Z,1.30
2022-09-15T05:54:12.788Z,1.63
2022-09-15T05:56:41.338Z,1.60
2022-09-15T05:59:10.801Z,1.00
2022-09-15T06:01:39.507Z,2.37
2022-09-15T06:04:07.575Z,1.60
2022-09-15T06:06:36.384Z,1.87
2022-09-15T06:09:07.699Z,0.90
2022-09-15T06:11:36.195Z,1.10
2022-09-15T06:14:06.387Z,0.90
2022-09-15T06:16:36.884Z,0.60
2022-09-15T06:19:06.333Z,0.97
2022-09-15T06:21:34.958Z,0.90
2022-09-15T06:24:06.990Z,0.80
2022-09-15T06:26:36.097Z,0.90
2022-09-15T06:29:06.351Z,0.73
2022-09-15T06:31:36.921Z,0.63
2022-09-15T06:34:05.532Z,0.67
2022-09-15T06:36:34.923Z,0.90
2022-09-15T06:39:03.093Z,0.60
2022-09-15T06:41:47.399Z,0.40
2022-09-15T06:44:21.206Z,0.40
2022-09-15T06:46:51.676Z,0.60
2022-09-15T06:49:22.323Z,1.00
2022-09-15T06:51:50.605Z,0.43
2022-09-15T06:54:18.949Z,0.57
2022-09-15T06:56:47.275Z,0.47
2022-09-15T06:59:17.296Z,0.67
2022-09-15T07:01:45.779Z,0.37
2022-09-15T07:04:15.534Z,0.30
2022-09-15T07:06:43.633Z,0.20
2022-09-15T07:09:13.409Z,0.33
2022-09-15T07:11:41.946Z,0.30
2022-09-15T07:14:10.134Z,0.60
2022-09-15T07:16:38.504Z,0.50
2022-09-15T07:19:06.726Z,0.50
2022-09-15T07:21:37.482Z,0.20
2022-09-15T07:24:07.606Z,0.60
2022-09-15T07:26:36.215Z,0.30
2022-09-15T07:29:08.203Z,0.87
2022-09-15T07:31:39.858Z,0.40
2022-09-15T07:34:09.195Z,0.27
2022-09-15T07:36:38.764Z,0.20
2022-09-15T07:39:07.658Z,0.33
2022-09-15T07:41:36.279Z,0.50
2022-09-15T07:44:04.911Z,0.47
2022-09-15T07:46:34.227Z,1.30
2022-09-15T07:49:03.933Z,1.00
2022-09-15T07:51:32.333Z,0.45
2022-09-15T07:54:02.077Z,0.30
2022-09-15T07:56:30.319Z,0.70
2022-09-15T07:58:59.008Z,0.40
2022-09-15T08:01:28.050Z,0.20
2022-09-15T08:03:56.175Z,0.50
2022-09-15T08:06:27.119Z,0.33
2022-09-15T08:09:00.340Z,0.40
2022-09-15T08:11:30.461Z,0.30
2022-09-15T08:14:03.313Z,0.40
2022-09-15T08:16:31.888Z,0.35
2022-09-15T08:19:00.486Z,0.40
2022-09-15T08:21:29.546Z,0.40
2022-09-15T08:24:01.654Z,0.77
2022-09-15T08:26:31.761Z,1.17
2022-09-15T08:29:00.923Z,1.35
2022-09-15T08:31:29.455Z,1.90
2022-09-15T08:33:58.269Z,1.30
2022-09-15T08:36:27.772Z,1.70
2022-09-15T08:38:56.459Z,0.90
2022-09-15T08:41:33.333Z,0.90
2022-09-15T08:44:12.259Z,0.97
2022-09-15T08:46:49.386Z,1.20
2022-09-15T08:49:49.977Z,0.60
2022-09-15T08:52:24.472Z,0.50
2022-09-15T08:54:58.080Z,0.60
2022-09-15T08:57:27.770Z,0.43
2022-09-15T08:59:56.309Z,0.60
2022-09-15T09:03:01.827Z,0.53
2022-09-15T09:05:48.476Z,0.40
2022-09-15T09:08:55.723Z,0.73
2022-09-15T09:11:38.309Z,0.50
2022-09-15T09:14:24.445Z,0.80
2022-09-15T09:17:13.646Z,0.60
2022-09-15T09:20:04.657Z,0.63
2022-09-15T09:22:39.065Z,0.53
2022-09-15T09:25:26.494Z,0.90
2022-09-15T09:27:59.070Z,1.00
2022-09-15T09:30:34.080Z,0.67
2022-09-15T09:33:23.967Z,0.77
2022-09-15T09:35:54.085Z,1.00
2022-09-15T09:38:27.484Z,0.67
2022-09-15T09:40:58.683Z,1.07
2022-09-15T09:43:31.896Z,1.13
2022-09-15T09:46:02.109Z,1.20
2022-09-15T09:48:31.533Z,1.30
2022-09-15T09:50:59.628Z,1.60
2022-09-15T09:53:32.005Z,1.50
2022-09-15T09:56:23.479Z,1.40
2022-09-15T09:58:51.964Z,1.27
2022-09-15T10:01:25.330Z,1.83
2022-09-15T10:04:14.284Z,1.80
2022-09-15T10:06:42.709Z,1.70
2022-09-15T10:09:18.059Z,2.00
2022-09-15T10:11:49.956Z,1.57
2022-09-15T10:14:23.371Z,2.60
2022-09-15T10:17:08.441Z,2.23
2022-09-15T10:19:47.133Z,2.30
2022-09-15T10:22:27.186Z,2.20
2022-09-15T10:24:55.740Z,2.80
2022-09-15T10:27:33.991Z,2.47
2022-09-15T10:30:19.664Z,2.50
2022-09-15T10:32:49.327Z,2.40
2022-09-15T10:35:20.947Z,2.10
2022-09-15T10:38:04.919Z,2.07
2022-09-15T10:40:42.670Z,1.93
2022-09-15T10:43:33.089Z,2.53
2022-09-15T10:46:10.543Z,2.03
2022-09-15T10:48:52.035Z,2.17
2022-09-15T10:51:47.107Z,1.90
2022-09-15T10:54:49.865Z,2.30
2022-09-15T10:57:44.738Z,2.30
2022-09-15T11:00:20.912Z,2.00
2022-09-15T11:03:43.770Z,1.93
2022-09-15T11:06:24.225Z,1.80
2022-09-15T11:09:14.907Z,2.50
2022-09-15T11:12:04.268Z,2.30
2022-09-15T11:14:57.448Z,2.93
2022-09-15T11:17:43.755Z,2.80
2022-09-15T11:20:30.188Z,3.30
2022-09-15T11:23:11.199Z,2.60
2022-09-15T11:25:45.796Z,2.80
2022-09-15T11:28:26.498Z,2.88
2022-09-15T11:31:01.717Z,2.67
2022-09-15T11:33:38.870Z,3.60
2022-09-15T11:36:15.698Z,2.70
2022-09-15T11:38:53.283Z,2.93
2022-09-15T11:41:31.525Z,2.87
2022-09-15T11:44:19.565Z,2.70
2022-09-15T11:47:09.851Z,2.73
2022-09-15T11:49:47.275Z,2.53
2022-09-15T11:52:50.576Z,2.20
2022-09-15T11:55:31.873Z,2.00
2022-09-15T11:58:22.033Z,2.10
2022-09-15T12:00:58.310Z,2.20
2022-09-15T12:03:35.379Z,2.33
2022-09-15T12:06:14.653Z,1.77
2022-09-15T12:08:50.881Z,2.50
2022-09-15T12:11:24.303Z,2.03
2022-09-15T12:13:55.659Z,2.50
2022-09-15T12:16:25.254Z,2.40
2022-09-15T12:19:02.325Z,2.33
2022-09-15T12:21:40.666Z,2.50
2022-09-15T12:24:18.240Z,2.20
2022-09-15T12:26:49.173Z,3.07
2022-09-15T12:29:42.176Z,3.33
2022-09-15T12:32:27.747Z,2.42
2022-09-15T12:35:32.668Z,1.50
2022-09-15T12:38:01.909Z,2.00
2022-09-15T12:40:37.791Z,2.47
2022-09-15T12:43:23.687Z,2.75
2022-09-15T12:45:58.960Z,2.55
2022-09-15T12:48:32.211Z,2.38
2022-09-15T12:51:04.914Z,2.33
2022-09-15T12:53:39.601Z,3.20
2022-09-15T12:56:22.345Z,3.13
2022-09-15T12:58:54.734Z,3.25
2022-09-15T13:01:48.788Z,3.22
2022-09-15T13:04:58.948Z,3.42
2022-09-15T13:07:37.205Z,4.00
2022-09-15T13:10:30.811Z,4.50
2022-09-15T13:13:31.201Z,4.40
2022-09-15T13:16:04.021Z,3.75
2022-09-15T13:18:33.720Z,3.67
2022-09-15T13:21:11.813Z,3.47
2022-09-15T13:23:45.872Z,3.05
2022-09-15T13:26:22.559Z,4.25
2022-09-15T13:28:55.677Z,3.97
2022-09-15T13:31:38.681Z,2.72
2022-09-15T13:35:05.043Z,2.50
2022-09-15T13:38:32.165Z,2.35
2022-09-15T13:41:32.860Z,2.70
2022-09-15T13:44:35.544Z,2.00
2022-09-15T13:47:34.041Z,2.40
2022-09-15T13:50:20.115Z,2.47
2022-09-15T13:53:08.789Z,2.40
2022-09-15T13:55:39.407Z,2.65
2022-09-15T14:01:08.160Z,2.30
2022-09-15T14:03:46.938Z,2.35
2022-09-15T14:06:21.004Z,2.30
2022-09-15T14:08:54.321Z,2.40
2022-09-15T14:11:29.256Z,2.17
2022-09-15T14:14:00.513Z,1.67
2022-09-15T14:16:36.418Z,2.22
2022-09-15T14:19:34.323Z,2.38
2022-09-15T14:22:17.305Z,2.13
2022-09-15T14:24:45.790Z,2.15
2022-09-15T14:27:22.155Z,1.98
2022-09-15T14:29:55.143Z,2.35
2022-09-15T14:32:24.080Z,2.67
2022-09-15T14:34:55.276Z,2.30
2022-09-15T14:37:27.867Z,1.90
2022-09-15T14:40:01.582Z,1.92
2022-09-15T14:42:32.667Z,1.73
2022-09-15T14:48:08.583Z,1.90
2022-09-15T14:50:38.933Z,1.90
2022-09-15T14:53:12.172Z,1.58
2022-09-15T14:55:51.188Z,1.90
2022-09-15T14:58:25.942Z,1.65
2022-09-15T15:01:01.435Z,2.00
2022-09-15T15:03:40.082Z,2.22
2022-09-15T15:06:34.586Z,2.33
2022-09-15T15:09:10.442Z,1.75
2022-09-15T15:11:42.239Z,1.83
2022-09-15T15:14:14.495Z,2.20
2022-09-15T15:16:54.850Z,1.73
2022-09-15T15:19:35.616Z,1.70
2022-09-15T15:22:20.855Z,2.08
2022-09-15T15:24:52.781Z,2.13
2022-09-15T15:27:43.542Z,1.83
2022-09-15T15:30:36.078Z,1.98
2022-09-15T15:33:07.926Z,1.90
2022-09-15T15:35:37.232Z,2.78
2022-09-15T15:38:16.361Z,1.73
2022-09-15T15:40:46.691Z,1.98
2022-09-15T15:43:26.426Z,1.90
2022-09-15T15:46:00.824Z,1.52
2022-09-15T15:48:36.885Z,1.90
2022-09-15T15:51:07.689Z,2.08
2022-09-15T15:53:37.119Z,2.20
2022-09-15T15:56:05.354Z,1.90
2022-09-15T15:58:33.672Z,2.03
2022-09-15T16:01:01.849Z,1.88
2022-09-15T16:03:30.640Z,2.38
2022-09-15T16:06:02.935Z,2.42
2022-09-15T16:08:38.344Z,2.25
2022-09-15T16:11:12.325Z,2.08
2022-09-15T16:13:40.488Z,2.13
2022-09-15T16:16:17.134Z,1.88
2022-09-15T16:18:45.706Z,2.05
2022-09-15T16:21:19.687Z,2.30
2022-09-15T16:23:48.234Z,2.20
2022-09-15T16:26:24.585Z,2.00
2022-09-15T16:28:52.757Z,2.08
2022-09-15T16:31:21.351Z,2.20
2022-09-15T16:33:49.531Z,2.50
2022-09-15T16:36:19.180Z,1.90
2022-09-15T16:38:47.372Z,2.00
2022-09-15T16:41:20.616Z,2.20
2022-09-15T16:43:49.133Z,2.55
2022-09-15T16:46:17.800Z,2.00
2022-09-15T16:48:47.154Z,2.00
2022-09-15T16:51:26.784Z,2.35
2022-09-15T16:53:58.183Z,2.60
2022-09-15T16:56:28.015Z,2.60
2022-09-15T16:59:00.063Z,2.40
2022-09-15T17:01:29.268Z,2.97
2022-09-15T17:03:57.766Z,3.28
2022-09-15T17:06:26.274Z,2.60
2022-09-15T17:08:55.975Z,2.17
2022-09-15T17:11:25.450Z,2.08
2022-09-15T17:13:55.348Z,2.30
2022-09-15T17:16:23.453Z,2.47
2022-09-15T17:18:52.110Z,2.00
2022-09-15T17:21:20.605Z,2.80
2022-09-15T17:23:50.884Z,2.20
2022-09-15T17:26:21.470Z,2.30
2022-09-15T17:28:50.699Z,2.00
2022-09-15T17:31:23.545Z,2.17
2022-09-15T17:33:53.490Z,1.93
2022-09-15T17:36:21.894Z,2.70
2022-09-15T17:38:49.989Z,1.98
2022-09-15T17:41:22.898Z,2.57
2022-09-15T17:43:51.841Z,4.43
2022-09-15T17:46:21.650Z,4.05
2022-09-15T17:48:50.259Z,3.05
2022-09-15T17:51:18.992Z,2.83
2022-09-15T17:53:48.042Z,2.73
2022-09-15T17:56:16.254Z,2.73
2022-09-15T17:58:44.253Z,2.50
2022-09-15T18:01:15.175Z,3.37
2022-09-15T18:03:46.800Z,3.30
2022-09-15T18:06:15.135Z,4.03
2022-09-15T18:08:43.317Z,3.13
2022-09-15T18:11:15.837Z,2.97
2022-09-15T18:13:44.051Z,2.87
2022-09-15T18:16:15.278Z,3.23
2022-09-15T18:18:44.863Z,3.80
2022-09-15T18:21:28.401Z,5.33
2022-09-15T18:23:57.002Z,3.37
2022-09-15T18:26:26.836Z,2.87
2022-09-15T18:28:56.034Z,3.00
2022-09-15T18:31:24.423Z,3.20
2022-09-15T18:33:54.416Z,3.00
2022-09-15T18:36:22.816Z,2.40
2022-09-15T18:38:50.920Z,2.63
2022-09-15T18:41:19.399Z,2.97
2022-09-15T18:43:49.033Z,2.87
2022-09-15T18:46:18.472Z,3.13
2022-09-15T18:48:46.785Z,3.30
2022-09-15T18:51:24.170Z,4.63
2022-09-15T18:53:58.325Z,4.33
2022-09-15T18:56:26.579Z,3.87
2022-09-15T18:58:55.681Z,3.50
2022-09-15T19:01:24.183Z,2.77
2022-09-15T19:03:52.718Z,3.37
2022-09-15T19:06:22.129Z,2.63
2022-09-15T19:08:50.686Z,2.77
2022-09-15T19:11:19.778Z,2.60
2022-09-15T19:13:48.412Z,2.93
2022-09-15T19:16:18.276Z,2.80
2022-09-15T19:18:51.709Z,2.60
2022-09-15T19:21:25.207Z,2.73
2022-09-15T19:23:58.311Z,2.80
2022-09-15T19:26:28.787Z,2.90
2022-09-15T19:28:58.435Z,2.43
2022-09-15T19:31:27.591Z,2.90
2022-09-15T19:33:55.747Z,2.90
2022-09-15T19:36:29.169Z,2.90
2022-09-15T19:38:59.468Z,2.57
2022-09-15T19:41:28.652Z,2.53
2022-09-15T19:43:56.951Z,2.73
2022-09-15T19:46:26.623Z,3.17
2022-09-15T19:48:55.597Z,2.53
2022-09-15T19:51:26.141Z,3.10
2022-09-15T19:53:58.409Z,3.57
2022-09-15T19:56:28.797Z,2.93
2022-09-15T19:58:59.127Z,3.00
2022-09-15T20:01:30.371Z,2.83
2022-09-15T20:03:59.119Z,2.97
2022-09-15T20:06:32.518Z,3.03
2022-09-15T20:09:01.548Z,2.67
2022-09-15T20:11:32.091Z,2.60
2022-09-15T20:14:01.663Z,3.17
2022-09-15T20:16:30.425Z,3.20
2022-09-15T20:18:58.767Z,2.87
2022-09-15T20:21:50.468Z,3.27
2022-09-15T20:24:21.335Z,3.37
2022-09-15T20:26:49.770Z,2.83
2022-09-15T20:29:18.469Z,3.27
2022-09-15T20:31:47.083Z,3.03
2022-09-15T20:34:15.322Z,2.97
2022-09-15T20:36:45.209Z,3.00
2022-09-15T20:39:16.582Z,2.67
2022-09-15T20:41:45.675Z,3.03
2022-09-15T20:44:15.481Z,3.30
2022-09-15T20:46:44.105Z,3.33
2022-09-15T20:49:13.376Z,3.00
2022-09-15T20:51:41.644Z,2.73
2022-09-15T20:54:11.846Z,2.83
2022-09-15T20:56:40.246Z,3.00
2022-09-15T20:59:10.607Z,3.33
2022-09-15T21:01:40.713Z,3.07
2022-09-15T21:04:10.825Z,3.30
2022-09-15T21:06:39.689Z,2.97
2022-09-15T21:09:10.048Z,3.30
2022-09-15T21:11:39.419Z,3.17
2022-09-15T21:14:07.556Z,3.10
2022-09-15T21:16:36.002Z,2.93
2022-09-15T21:19:05.003Z,2.90
2022-09-15T21:21:34.647Z,3.27
2022-09-15T21:24:05.353Z,2.83
2022-09-15T21:27:00.194Z,3.20
2022-09-15T21:29:29.931Z,3.20
2022-09-15T21:31:58.644Z,3.00
2022-09-15T21:34:26.904Z,3.17
2022-09-15T21:36:55.723Z,3.13
2022-09-15T21:39:24.337Z,3.17
2022-09-15T21:41:54.388Z,3.07
2022-09-15T21:44:23.160Z,2.73
2022-09-15T21:46:52.663Z,3.27
2022-09-15T21:49:21.688Z,2.90
2022-09-15T21:51:49.928Z,3.27
2022-09-15T21:54:19.681Z,3.30
2022-09-15T21:56:47.780Z,3.77
2022-09-15T21:59:18.496Z,3.40
2022-09-15T22:01:47.012Z,2.87
2022-09-15T22:04:16.168Z,3.10
2022-09-15T22:06:45.063Z,3.10
2022-09-15T22:09:17.911Z,3.03
2022-09-15T22:11:46.152Z,3.10
2022-09-15T22:14:16.205Z,3.30
2022-09-15T22:16:44.665Z,3.17
2022-09-15T22:19:14.003Z,3.10
2022-09-15T22:21:42.999Z,3.30
2022-09-15T22:24:13.672Z,2.97
2022-09-15T22:26:43.786Z,2.83
2022-09-15T22:29:12.396Z,2.90
2022-09-15T22:31:42.911Z,2.63
2022-09-15T22:34:11.161Z,3.10
2022-09-15T22:36:40.418Z,2.97
2022-09-15T22:39:08.905Z,3.03
2022-09-15T22:41:39.237Z,3.00
2022-09-15T22:44:14.768Z,2.60
2022-09-15T22:46:44.273Z,2.97
2022-09-15T22:49:12.607Z,2.90
2022-09-15T22:51:40.863Z,3.07
2022-09-15T22:54:09.268Z,2.90
2022-09-15T22:56:37.372Z,2.83
2022-09-15T22:59:06.168Z,2.60
2022-09-15T23:01:34.305Z,3.13
2022-09-15T23:04:04.531Z,2.87
2022-09-15T23:06:35.514Z,3.03
2022-09-15T23:09:07.867Z,2.47
2022-09-15T23:11:40.365Z,2.70
2022-09-15T23:14:15.243Z,2.57
2022-09-15T23:16:44.552Z,3.20
2022-09-15T23:19:15.045Z,2.60
2022-09-15T23:21:43.869Z,2.67
2022-09-15T23:24:14.069Z,3.07
2022-09-15T23:26:42.130Z,2.77
2022-09-15T23:29:11.390Z,2.60
2022-09-15T23:31:39.604Z,2.60
2022-09-15T23:34:08.364Z,3.07
2022-09-15T23:36:38.694Z,2.60
2022-09-15T23:39:07.272Z,2.90
2022-09-15T23:41:36.887Z,2.70
2022-09-15T23:44:05.225Z,2.77
2022-09-15T23:46:34.305Z,3.10
2022-09-15T23:49:02.887Z,2.80
2022-09-15T23:51:31.711Z,2.97
2022-09-15T23:54:02.227Z,3.20
2022-09-15T23:56:31.210Z,3.00
2022-09-15T23:58:59.295Z,2.63
